sensor_id;sensor_type;location;lat;lon;timestamp;P1;durP1;ratioP1;P2;durP2;ratioP2
7883;SDS011;3987;51.458;7.238;2023-04-07T00:00:22;12.43;;;11.40;;
7883;SDS011;3987;51.458;7.238;2023-04-07T00:15:23;12.90;;;11.97;;
7883;SDS011;3987;51.458;7.238;2023-04-07T00:30:27;14.33;;;13.23;;
7883;SDS011;3987;51.458;7.238;2023-04-07T00:45:27;14.53;;;13.23;;
7883;SDS011;3987;51.458;7.238;2023-04-07T01:00:28;16.33;;;14.83;;
7883;SDS011;3987;51.458;7.238;2023-04-07T01:15:36;18.33;;;14.87;;
7883;SDS011;3987;51.458;7.238;2023-04-07T01:30:38;16.87;;;15.33;;
7883;SDS011;3987;51.458;7.238;2023-04-07T01:45:40;18.13;;;16.20;;
7883;SDS011;3987;51.458;7.238;2023-04-07T02:00:41;18.27;;;16.37;;
7883;SDS011;3987;51.458;7.238;2023-04-07T02:16:02;19.00;;;17.00;;
7883;SDS011;3987;51.458;7.238;2023-04-07T02:31:03;21.60;;;18.20;;
7883;SDS011;3987;51.458;7.238;2023-04-07T02:46:05;21.87;;;17.70;;
7883;SDS011;3987;51.458;7.238;2023-04-07T03:01:06;22.93;;;18.80;;
7883;SDS011;3987;51.458;7.238;2023-04-07T03:16:08;30.30;;;21.40;;
7883;SDS011;3987;51.458;7.238;2023-04-07T03:31:18;32.60;;;21.77;;
7883;SDS011;3987;51.458;7.238;2023-04-07T03:46:19;30.90;;;20.77;;
7883;SDS011;3987;51.458;7.238;2023-04-07T04:01:21;39.03;;;22.93;;
7883;SDS011;3987;51.458;7.238;2023-04-07T04:16:23;46.80;;;24.83;;
7883;SDS011;3987;51.458;7.238;2023-04-07T04:31:26;53.27;;;26.00;;
7883;SDS011;3987;51.458;7.238;2023-04-07T04:46:27;46.63;;;23.93;;
7883;SDS011;3987;51.458;7.238;2023-04-07T05:01:28;42.23;;;21.23;;
7883;SDS011;3987;51.458;7.238;2023-04-07T05:16:36;39.27;;;20.67;;
7883;SDS011;3987;51.458;7.238;2023-04-07T05:31:38;34.43;;;19.30;;
7883;SDS011;3987;51.458;7.238;2023-04-07T05:46:44;33.63;;;21.43;;
7883;SDS011;3987;51.458;7.238;2023-04-07T06:01:45;29.80;;;19.10;;
7883;SDS011;3987;51.458;7.238;2023-04-07T06:16:45;32.60;;;20.07;;
7883;SDS011;3987;51.458;7.238;2023-04-07T06:31:46;27.90;;;16.77;;
7883;SDS011;3987;51.458;7.238;2023-04-07T06:46:46;25.10;;;15.23;;
7883;SDS011;3987;51.458;7.238;2023-04-07T07:01:49;22.50;;;14.13;;
7883;SDS011;3987;51.458;7.238;2023-04-07T07:16:49;18.17;;;12.13;;
7883;SDS011;3987;51.458;7.238;2023-04-07T07:31:50;17.63;;;10.13;;
7883;SDS011;3987;51.458;7.238;2023-04-07T07:46:50;14.03;;;10.30;;
7883;SDS011;3987;51.458;7.238;2023-04-07T08:01:51;11.27;;;9.03;;
7883;SDS011;3987;51.458;7.238;2023-04-07T08:16:51;8.43;;;7.73;;
7883;SDS011;3987;51.458;7.238;2023-04-07T08:31:51;10.97;;;8.30;;
7883;SDS011;3987;51.458;7.238;2023-04-07T08:46:52;11.43;;;7.83;;
7883;SDS011;3987;51.458;7.238;2023-04-07T09:01:55;10.83;;;8.43;;
7883;SDS011;3987;51.458;7.238;2023-04-07T09:16:56;12.07;;;8.97;;
7883;SDS011;3987;51.458;7.238;2023-04-07T09:31:59;9.47;;;8.57;;
7883;SDS011;3987;51.458;7.238;2023-04-07T09:46:59;10.43;;;8.60;;
7883;SDS011;3987;51.458;7.238;2023-04-07T10:02:00;8.10;;;7.50;;
7883;SDS011;3987;51.458;7.238;2023-04-07T10:17:00;7.93;;;7.20;;
7883;SDS011;3987;51.458;7.238;2023-04-07T10:32:02;7.13;;;6.43;;
7883;SDS011;3987;51.458;7.238;2023-04-07T10:47:03;9.00;;;7.43;;
7883;SDS011;3987;51.458;7.238;2023-04-07T11:17:13;4.50;;;4.30;;
7883;SDS011;3987;51.458;7.238;2023-04-07T11:32:14;5.70;;;5.33;;
7883;SDS011;3987;51.458;7.238;2023-04-07T11:47:14;9.10;;;8.80;;
7883;SDS011;3987;51.458;7.238;2023-04-07T12:02:33;8.77;;;8.43;;
7883;SDS011;3987;51.458;7.238;2023-04-07T12:17:34;8.73;;;8.33;;
7883;SDS011;3987;51.458;7.238;2023-04-07T12:32:35;8.73;;;8.33;;
7883;SDS011;3987;51.458;7.238;2023-04-07T12:47:36;7.83;;;7.43;;
7883;SDS011;3987;51.458;7.238;2023-04-07T13:02:37;4.10;;;4.00;;
7883;SDS011;3987;51.458;7.238;2023-04-07T13:17:37;4.23;;;4.03;;
7883;SDS011;3987;51.458;7.238;2023-04-07T13:32:38;3.77;;;3.67;;
7883;SDS011;3987;51.458;7.238;2023-04-07T13:47:38;5.63;;;5.50;;
7883;SDS011;3987;51.458;7.238;2023-04-07T14:02:38;5.77;;;5.57;;
7883;SDS011;3987;51.458;7.238;2023-04-07T14:17:39;8.10;;;7.80;;
7883;SDS011;3987;51.458;7.238;2023-04-07T14:32:39;9.90;;;9.30;;
7883;SDS011;3987;51.458;7.238;2023-04-07T14:47:40;14.40;;;13.20;;
7883;SDS011;3987;51.458;7.238;2023-04-07T15:02:40;14.37;;;13.07;;
7883;SDS011;3987;51.458;7.238;2023-04-07T15:17:41;12.43;;;11.53;;
7883;SDS011;3987;51.458;7.238;2023-04-07T15:32:41;12.57;;;11.67;;
7883;SDS011;3987;51.458;7.238;2023-04-07T15:47:43;11.40;;;10.50;;
7883;SDS011;3987;51.458;7.238;2023-04-07T16:02:43;18.70;;;16.70;;
7883;SDS011;3987;51.458;7.238;2023-04-07T16:17:45;17.57;;;15.97;;
7883;SDS011;3987;51.458;7.238;2023-04-07T16:32:46;17.00;;;15.20;;
7883;SDS011;3987;51.458;7.238;2023-04-07T16:47:47;15.47;;;14.00;;
7883;SDS011;3987;51.458;7.238;2023-04-07T17:02:47;18.13;;;16.33;;
7883;SDS011;3987;51.458;7.238;2023-04-07T17:17:48;16.77;;;15.27;;
7883;SDS011;3987;51.458;7.238;2023-04-07T17:32:49;17.40;;;15.90;;
7883;SDS011;3987;51.458;7.238;2023-04-07T17:47:49;15.00;;;13.80;;
7883;SDS011;3987;51.458;7.238;2023-04-07T18:02:50;14.27;;;13.17;;
7883;SDS011;3987;51.458;7.238;2023-04-07T18:17:52;14.80;;;13.60;;
7883;SDS011;3987;51.458;7.238;2023-04-07T18:32:53;15.33;;;14.13;;
7883;SDS011;3987;51.458;7.238;2023-04-07T18:47:54;16.43;;;15.03;;
7883;SDS011;3987;51.458;7.238;2023-04-07T19:02:55;16.90;;;15.40;;
7883;SDS011;3987;51.458;7.238;2023-04-07T19:17:56;22.92;;;17.48;;
7883;SDS011;3987;51.458;7.238;2023-04-07T19:32:58;21.13;;;19.00;;
7883;SDS011;3987;51.458;7.238;2023-04-07T19:47:59;23.37;;;19.13;;
7883;SDS011;3987;51.458;7.238;2023-04-07T20:03:01;23.00;;;20.70;;
7883;SDS011;3987;51.458;7.238;2023-04-07T20:18:06;29.03;;;23.73;;
7883;SDS011;3987;51.458;7.238;2023-04-07T20:33:07;30.33;;;24.83;;
7883;SDS011;3987;51.458;7.238;2023-04-07T20:48:08;27.17;;;23.60;;
7883;SDS011;3987;51.458;7.238;2023-04-07T21:03:08;32.00;;;24.87;;
7883;SDS011;3987;51.458;7.238;2023-04-07T21:18:09;33.67;;;26.40;;
7883;SDS011;3987;51.458;7.238;2023-04-07T21:33:10;36.17;;;27.70;;
7883;SDS011;3987;51.458;7.238;2023-04-07T21:48:11;30.30;;;22.73;;
7883;SDS011;3987;51.458;7.238;2023-04-07T22:03:14;31.27;;;23.77;;
7883;SDS011;3987;51.458;7.238;2023-04-07T22:18:17;29.77;;;22.73;;
7883;SDS011;3987;51.458;7.238;2023-04-07T22:33:19;28.33;;;23.17;;
7883;SDS011;3987;51.458;7.238;2023-04-07T22:48:22;31.37;;;23.37;;
7883;SDS011;3987;51.458;7.238;2023-04-07T23:03:24;37.50;;;25.70;;
7883;SDS011;3987;51.458;7.238;2023-04-07T23:18:25;31.07;;;22.70;;
7883;SDS011;3987;51.458;7.238;2023-04-07T23:33:25;32.30;;;23.47;;
7883;SDS011;3987;51.458;7.238;2023-04-07T23:48:26;35.43;;;24.67;;
